createdAt,value
2019-02-15T00:01:31.372Z,31.33
2019-02-15T00:04:00.973Z,31.57
2019-02-15T00:06:31.993Z,32.50
2019-02-15T00:09:01.599Z,31.07
2019-02-15T00:11:32.456Z,33.37
2019-02-15T00:14:02.150Z,28.97
2019-02-15T00:16:31.790Z,30.20
2019-02-15T00:19:06.671Z,30.17
2019-02-15T00:21:39.937Z,28.47
2019-02-15T00:24:09.595Z,29.43
2019-02-15T00:26:39.236Z,27.33
2019-02-15T00:29:08.881Z,28.17
2019-02-15T00:31:38.500Z,31.80
2019-02-15T00:34:08.440Z,27.90
2019-02-15T00:36:39.544Z,25.37
2019-02-15T00:39:09.218Z,31.75
2019-02-15T00:41:38.868Z,26.80
2019-02-15T00:44:08.509Z,25.87
2019-02-15T00:46:46.396Z,26.60
2019-02-15T00:49:20.269Z,26.57
2019-02-15T00:51:57.200Z,25.03
2019-02-15T00:54:32.114Z,24.90
2019-02-15T00:58:11.160Z,24.97
2019-02-15T01:00:52.056Z,26.13
2019-02-15T01:03:27.884Z,24.97
2019-02-15T01:07:03.639Z,26.30
2019-02-15T01:09:42.804Z,25.87
2019-02-15T01:12:18.781Z,24.53
2019-02-15T01:14:48.400Z,27.27
2019-02-15T01:17:18.043Z,25.80
2019-02-15T01:19:47.649Z,27.40
2019-02-15T01:22:18.529Z,26.83
2019-02-15T01:24:48.161Z,27.70
2019-02-15T01:27:27.019Z,27.47
2019-02-15T01:30:02.829Z,26.07
2019-02-15T01:32:38.636Z,29.63
2019-02-15T01:36:14.518Z,27.20
2019-02-15T01:38:52.349Z,25.47
2019-02-15T01:41:31.272Z,28.50
2019-02-15T01:44:08.792Z,25.80
2019-02-15T01:46:48.384Z,27.10
2019-02-15T01:49:18.025Z,24.97
2019-02-15T01:51:47.636Z,25.73
2019-02-15T01:54:18.518Z,25.23
2019-02-15T01:56:48.139Z,26.20
2019-02-15T01:59:17.770Z,25.17
2019-02-15T02:01:47.412Z,24.13
2019-02-15T02:04:18.272Z,23.73
2019-02-15T02:06:47.899Z,22.80
2019-02-15T02:09:17.540Z,22.43
2019-02-15T02:11:47.149Z,24.17
2019-02-15T02:14:16.780Z,25.20
2019-02-15T02:16:46.409Z,24.23
2019-02-15T02:19:16.073Z,25.17
2019-02-15T02:21:45.669Z,26.33
2019-02-15T02:24:15.381Z,23.60
2019-02-15T02:26:44.997Z,25.37
2019-02-15T02:29:14.612Z,24.37
2019-02-15T02:31:44.274Z,26.07
2019-02-15T02:34:13.881Z,26.00
2019-02-15T02:36:51.363Z,24.60
2019-02-15T02:39:21.020Z,25.57
2019-02-15T02:41:50.630Z,25.70
2019-02-15T02:44:20.248Z,25.00
2019-02-15T02:46:49.867Z,24.23
2019-02-15T02:49:19.498Z,23.80
2019-02-15T02:51:49.138Z,25.67
2019-02-15T02:54:18.803Z,34.92
2019-02-15T02:56:48.405Z,28.23
2019-02-15T02:59:18.030Z,26.83
2019-02-15T03:01:47.779Z,26.87
2019-02-15T03:04:17.376Z,27.47
2019-02-15T03:06:48.277Z,25.97
2019-02-15T03:09:17.866Z,26.70
2019-02-15T03:11:47.529Z,25.57
2019-02-15T03:14:17.159Z,25.37
2019-02-15T03:16:46.809Z,27.17
2019-02-15T03:19:16.841Z,26.37
2019-02-15T03:21:46.459Z,25.70
2019-02-15T03:24:16.085Z,25.33
2019-02-15T03:26:46.324Z,27.30
2019-02-15T03:29:16.029Z,27.50
2019-02-15T03:31:45.644Z,25.80
2019-02-15T03:34:15.307Z,26.57
2019-02-15T03:37:55.290Z,26.17
2019-02-15T03:40:31.155Z,24.70
2019-02-15T03:43:00.790Z,25.83
2019-02-15T03:45:31.266Z,25.07
2019-02-15T03:48:00.865Z,25.97
2019-02-15T03:50:31.407Z,25.10
2019-02-15T03:53:01.077Z,26.33
2019-02-15T03:55:30.708Z,27.83
2019-02-15T03:58:00.336Z,25.50
2019-02-15T04:00:29.941Z,25.70
2019-02-15T04:02:59.590Z,26.60
2019-02-15T04:05:29.233Z,26.00
2019-02-15T04:07:58.891Z,25.63
2019-02-15T04:10:28.534Z,25.67
2019-02-15T04:12:58.197Z,25.73
2019-02-15T04:15:27.861Z,25.43
2019-02-15T04:17:57.937Z,24.57
2019-02-15T04:20:27.559Z,27.47
2019-02-15T04:22:57.251Z,28.27
2019-02-15T04:25:26.900Z,25.20
2019-02-15T04:27:56.541Z,26.57
2019-02-15T04:30:26.204Z,26.53
2019-02-15T04:32:55.823Z,25.60
2019-02-15T04:35:25.447Z,26.97
2019-02-15T04:37:55.223Z,27.70
2019-02-15T04:40:24.856Z,28.53
2019-02-15T04:42:54.493Z,26.10
2019-02-15T04:45:24.190Z,27.07
2019-02-15T04:47:56.342Z,27.53
2019-02-15T04:50:27.222Z,27.03
2019-02-15T04:52:56.869Z,27.10
2019-02-15T04:55:26.478Z,27.23
2019-02-15T04:57:56.129Z,26.23
2019-02-15T05:00:25.821Z,23.90
2019-02-15T05:02:55.465Z,25.67
2019-02-15T05:05:25.089Z,24.43
2019-02-15T05:07:54.757Z,24.30
2019-02-15T05:10:24.389Z,25.97
2019-02-15T05:12:54.042Z,25.53
2019-02-15T05:15:23.673Z,26.43
2019-02-15T05:17:53.317Z,24.13
2019-02-15T05:20:22.957Z,25.60
2019-02-15T05:22:53.916Z,24.03
2019-02-15T05:25:23.547Z,23.43
2019-02-15T05:27:53.152Z,22.40
2019-02-15T05:30:22.789Z,24.83
2019-02-15T05:32:52.419Z,25.53
2019-02-15T05:35:22.056Z,25.23
2019-02-15T05:37:51.676Z,24.50
2019-02-15T05:40:21.413Z,25.77
2019-02-15T05:42:51.068Z,24.93
2019-02-15T05:45:20.742Z,23.83
2019-02-15T05:48:04.549Z,25.87
2019-02-15T05:50:34.914Z,25.43
2019-02-15T05:53:06.919Z,26.87
2019-02-15T05:55:36.607Z,26.17
2019-02-15T05:58:08.608Z,26.20
2019-02-15T06:00:38.238Z,26.97
2019-02-15T06:03:08.289Z,27.63
2019-02-15T06:05:38.779Z,25.50
2019-02-15T06:08:08.418Z,26.17
2019-02-15T06:10:38.078Z,27.87
2019-02-15T06:13:07.708Z,27.27
2019-02-15T06:15:37.354Z,26.27
2019-02-15T06:18:07.017Z,26.00
2019-02-15T06:20:39.918Z,26.83
2019-02-15T06:23:10.798Z,26.30
2019-02-15T06:25:43.460Z,27.57
2019-02-15T06:28:14.289Z,27.13
2019-02-15T06:30:51.679Z,28.33
2019-02-15T06:33:22.593Z,26.63
2019-02-15T06:35:52.198Z,25.77
2019-02-15T06:38:21.809Z,27.23
2019-02-15T06:40:52.440Z,25.77
2019-02-15T06:43:22.054Z,27.93
2019-02-15T06:45:51.745Z,24.87
2019-02-15T06:48:21.414Z,25.40
2019-02-15T06:50:51.079Z,25.57
2019-02-15T06:53:20.722Z,24.77
2019-02-15T06:55:50.352Z,25.23
2019-02-15T06:58:20.025Z,23.20
2019-02-15T07:00:55.189Z,24.70
2019-02-15T07:03:40.799Z,23.93
2019-02-15T07:06:10.419Z,23.67
2019-02-15T07:08:41.401Z,21.63
2019-02-15T07:11:11.013Z,23.57
2019-02-15T07:13:40.700Z,23.43
2019-02-15T07:16:41.315Z,23.50
2019-02-15T07:19:10.944Z,22.33
2019-02-15T07:21:40.597Z,22.90
2019-02-15T07:24:10.193Z,22.23
2019-02-15T07:26:39.874Z,22.63
2019-02-15T07:29:09.579Z,22.80
2019-02-15T07:31:39.200Z,22.27
2019-02-15T07:34:08.817Z,21.17
2019-02-15T07:36:38.493Z,21.90
2019-02-15T07:39:08.192Z,20.03
2019-02-15T07:41:37.895Z,22.07
2019-02-15T07:44:07.576Z,21.97
2019-02-15T07:46:37.173Z,21.50
2019-02-15T07:49:06.872Z,19.33
2019-02-15T07:51:36.502Z,19.90
2019-02-15T07:54:06.113Z,18.97
2019-02-15T07:56:36.947Z,18.00
2019-02-15T07:59:06.624Z,18.50
2019-02-15T08:01:36.301Z,18.73
2019-02-15T08:04:07.167Z,18.57
2019-02-15T08:06:36.797Z,18.37
2019-02-15T08:09:10.729Z,18.13
2019-02-15T08:11:39.641Z,19.07
2019-02-15T08:14:14.909Z,18.80
2019-02-15T08:16:38.918Z,18.53
2019-02-15T08:19:08.581Z,18.93
2019-02-15T08:21:38.197Z,21.40
2019-02-15T08:24:07.818Z,19.33
2019-02-15T08:26:37.474Z,19.57
2019-02-15T08:29:09.524Z,18.37
2019-02-15T08:31:39.157Z,18.53
2019-02-15T08:34:08.769Z,18.43
2019-02-15T08:36:39.770Z,18.97
2019-02-15T08:39:09.393Z,16.97
2019-02-15T08:41:39.004Z,16.37
2019-02-15T08:44:08.637Z,16.10
2019-02-15T08:46:38.253Z,18.07
2019-02-15T08:49:07.878Z,19.57
2019-02-15T08:51:37.536Z,18.00
2019-02-15T08:54:07.148Z,17.03
2019-02-15T08:56:36.761Z,16.37
2019-02-15T08:59:08.772Z,17.90
2019-02-15T09:01:39.645Z,18.03
2019-02-15T09:04:09.261Z,17.43
2019-02-15T09:06:38.884Z,17.60
2019-02-15T09:09:08.513Z,16.77
2019-02-15T09:11:38.228Z,17.97
2019-02-15T09:14:07.869Z,18.13
2019-02-15T09:16:37.460Z,17.03
2019-02-15T09:19:07.057Z,17.37
2019-02-15T09:21:36.719Z,17.13
2019-02-15T09:24:06.310Z,16.40
2019-02-15T09:26:35.918Z,15.23
2019-02-15T09:29:12.563Z,14.03
2019-02-15T09:31:42.217Z,13.63
2019-02-15T09:34:11.821Z,13.93
2019-02-15T09:36:42.706Z,13.47
2019-02-15T09:39:12.347Z,13.47
2019-02-15T09:41:41.953Z,13.40
2019-02-15T09:44:11.586Z,13.10
2019-02-15T09:46:41.245Z,12.77
2019-02-15T09:49:10.897Z,11.70
2019-02-15T09:51:41.872Z,11.57
2019-02-15T09:54:11.553Z,11.67
2019-02-15T09:56:41.189Z,10.97
2019-02-15T09:59:10.816Z,11.17
2019-02-15T10:01:40.447Z,10.87
2019-02-15T10:04:12.589Z,10.13
2019-02-15T10:06:42.201Z,10.47
2019-02-15T10:09:11.850Z,11.67
2019-02-15T10:11:41.525Z,11.43
2019-02-15T10:14:11.136Z,10.97
2019-02-15T10:16:40.757Z,10.83
2019-02-15T10:19:11.665Z,10.17
2019-02-15T10:21:41.346Z,11.33
2019-02-15T10:24:12.198Z,11.83
2019-02-15T10:26:41.859Z,9.83
2019-02-15T10:29:11.469Z,10.43
2019-02-15T10:31:41.087Z,10.87
2019-02-15T10:34:11.041Z,9.73
2019-02-15T10:36:42.755Z,10.20
2019-02-15T10:39:12.391Z,9.17
2019-02-15T10:41:41.977Z,9.20
2019-02-15T10:44:11.635Z,7.57
2019-02-15T10:46:41.318Z,8.23
2019-02-15T10:49:10.922Z,11.17
2019-02-15T10:51:41.882Z,8.97
2019-02-15T10:54:13.980Z,8.47
2019-02-15T10:56:43.577Z,8.23
2019-02-15T10:59:13.187Z,8.93
2019-02-15T11:01:44.101Z,9.33
2019-02-15T11:04:13.706Z,8.80
2019-02-15T11:06:43.331Z,7.97
2019-02-15T11:09:13.214Z,8.33
2019-02-15T11:11:42.970Z,7.83
2019-02-15T11:14:12.597Z,7.53
2019-02-15T11:16:47.246Z,7.50
2019-02-15T11:19:12.025Z,7.73
2019-02-15T11:21:41.631Z,8.33
2019-02-15T11:24:12.505Z,7.63
2019-02-15T11:26:42.126Z,7.53
2019-02-15T11:29:11.736Z,7.20
2019-02-15T11:31:41.422Z,6.67
2019-02-15T11:34:11.037Z,6.87
2019-02-15T11:36:40.680Z,6.53
2019-02-15T11:39:10.301Z,7.10
2019-02-15T11:41:39.906Z,6.63
2019-02-15T11:44:09.585Z,7.00
2019-02-15T11:46:39.233Z,6.37
2019-02-15T11:49:08.845Z,6.77
2019-02-15T11:51:38.489Z,6.83
2019-02-15T11:54:08.174Z,6.67
2019-02-15T11:56:37.799Z,6.83
2019-02-15T11:59:08.652Z,7.03
2019-02-15T12:01:38.340Z,7.30
2019-02-15T12:04:08.017Z,6.93
2019-02-15T12:06:37.675Z,8.17
2019-02-15T12:09:07.341Z,7.83
2019-02-15T12:11:36.983Z,6.90
2019-02-15T12:14:06.691Z,7.03
2019-02-15T12:16:38.112Z,8.27
2019-02-15T12:19:06.614Z,8.70
2019-02-15T12:21:36.215Z,7.27
2019-02-15T12:24:05.849Z,7.17
2019-02-15T12:26:35.484Z,7.30
2019-02-15T12:29:06.341Z,7.60
2019-02-15T12:31:37.153Z,7.33
2019-02-15T12:34:07.433Z,7.10
2019-02-15T12:36:36.410Z,6.43
2019-02-15T12:39:06.085Z,6.43
2019-02-15T12:41:35.763Z,6.07
2019-02-15T12:44:05.361Z,6.07
2019-02-15T12:46:34.974Z,5.47
2019-02-15T12:49:04.612Z,5.90
2019-02-15T12:51:36.745Z,5.17
2019-02-15T12:54:06.339Z,6.07
2019-02-15T12:56:36.029Z,7.65
2019-02-15T12:59:06.808Z,6.77
2019-02-15T13:01:36.438Z,7.10
2019-02-15T13:04:06.047Z,6.60
2019-02-15T13:06:38.170Z,7.27
2019-02-15T13:09:07.801Z,7.70
2019-02-15T13:11:39.926Z,7.93
2019-02-15T13:14:09.557Z,8.77
2019-02-15T13:16:39.181Z,8.77
2019-02-15T13:19:08.848Z,9.80
2019-02-15T13:21:38.461Z,9.10
2019-02-15T13:24:08.069Z,9.73
2019-02-15T13:26:38.937Z,10.27
2019-02-15T13:29:08.580Z,10.47
2019-02-15T13:31:38.185Z,10.33
2019-02-15T13:34:07.834Z,9.87
2019-02-15T13:36:38.563Z,10.67
2019-02-15T13:39:09.843Z,9.10
2019-02-15T13:41:37.884Z,8.73
2019-02-15T13:44:07.493Z,10.77
2019-02-15T13:46:37.141Z,11.63
2019-02-15T13:49:06.810Z,9.57
2019-02-15T13:51:36.435Z,9.30
2019-02-15T13:54:06.073Z,9.17
2019-02-15T13:56:35.752Z,8.80
2019-02-15T13:59:05.381Z,9.17
2019-02-15T14:01:35.024Z,9.30
2019-02-15T14:04:07.160Z,9.07
2019-02-15T14:06:36.805Z,9.43
2019-02-15T14:09:06.529Z,11.40
2019-02-15T14:11:36.130Z,12.17
2019-02-15T14:14:05.769Z,11.63
2019-02-15T14:16:38.041Z,14.27
2019-02-15T14:19:07.668Z,11.97
2019-02-15T14:21:44.068Z,10.37
2019-02-15T14:24:06.991Z,11.27
2019-02-15T14:26:37.898Z,11.43
2019-02-15T14:29:07.592Z,11.40
2019-02-15T14:31:37.229Z,10.57
2019-02-15T14:34:06.852Z,12.07
2019-02-15T14:36:37.700Z,12.03
2019-02-15T14:39:09.563Z,12.03
2019-02-15T14:41:40.797Z,12.00
2019-02-15T14:44:10.422Z,11.47
2019-02-15T14:46:40.053Z,11.93
2019-02-15T14:49:12.181Z,11.37
2019-02-15T14:51:41.889Z,9.80
2019-02-15T14:54:11.530Z,11.53
2019-02-15T14:56:41.225Z,10.23
2019-02-15T14:59:10.924Z,10.60
2019-02-15T15:01:40.562Z,9.80
2019-02-15T15:04:10.204Z,10.70
2019-02-15T15:06:39.856Z,10.80
2019-02-15T15:09:09.521Z,11.20
2019-02-15T15:11:39.204Z,11.90
2019-02-15T15:14:08.809Z,11.50
2019-02-15T15:16:42.135Z,10.53
2019-02-15T15:19:11.784Z,10.70
2019-02-15T15:21:41.394Z,10.53
2019-02-15T15:24:12.389Z,11.07
2019-02-15T15:26:42.055Z,11.43
2019-02-15T15:29:11.671Z,10.80
2019-02-15T15:31:41.386Z,19.67
2019-02-15T15:34:11.099Z,12.90
2019-02-15T15:36:40.757Z,14.57
2019-02-15T15:39:10.430Z,14.20
2019-02-15T15:41:40.096Z,13.33
2019-02-15T15:44:09.869Z,12.07
2019-02-15T15:46:39.541Z,11.60
2019-02-15T15:49:09.153Z,13.17
2019-02-15T15:51:38.825Z,23.93
2019-02-15T15:54:09.706Z,12.43
2019-02-15T15:56:39.508Z,12.43
2019-02-15T15:59:09.139Z,12.13
2019-02-15T16:01:38.822Z,13.17
2019-02-15T16:04:08.489Z,34.03
2019-02-15T16:06:38.135Z,11.70
2019-02-15T16:09:07.838Z,10.80
2019-02-15T16:11:37.477Z,11.10
2019-02-15T16:14:07.165Z,11.67
2019-02-15T16:16:36.844Z,10.30
2019-02-15T16:19:06.447Z,11.27
2019-02-15T16:21:36.640Z,9.87
2019-02-15T16:24:12.327Z,10.00
2019-02-15T16:26:39.425Z,9.67
2019-02-15T16:29:09.275Z,10.23
2019-02-15T16:31:38.894Z,10.13
2019-02-15T16:34:08.523Z,27.63
2019-02-15T16:36:38.156Z,10.70
2019-02-15T16:39:07.773Z,10.50
2019-02-15T16:41:37.425Z,12.90
2019-02-15T16:44:08.310Z,12.10
2019-02-15T16:46:37.985Z,11.77
2019-02-15T16:49:07.622Z,9.43
2019-02-15T16:51:38.546Z,9.50
2019-02-15T16:54:08.147Z,9.17
2019-02-15T16:56:37.830Z,9.13
2019-02-15T16:59:07.438Z,8.77
2019-02-15T17:01:37.086Z,9.10
2019-02-15T17:04:06.701Z,8.83
2019-02-15T17:06:36.337Z,9.50
2019-02-15T17:09:11.625Z,13.07
2019-02-15T17:11:42.586Z,11.03
2019-02-15T17:14:12.243Z,10.83
2019-02-15T17:16:41.853Z,9.87
2019-02-15T17:19:13.893Z,11.47
2019-02-15T17:21:43.517Z,10.93
2019-02-15T17:24:13.179Z,10.67
2019-02-15T17:26:42.789Z,10.07
2019-02-15T17:29:12.457Z,13.67
2019-02-15T17:31:42.056Z,11.47
2019-02-15T17:34:11.671Z,11.63
2019-02-15T17:36:41.379Z,12.27
2019-02-15T17:39:10.982Z,13.73
2019-02-15T17:41:40.727Z,14.23
2019-02-15T17:44:10.429Z,12.73
2019-02-15T17:46:40.037Z,11.73
2019-02-15T17:49:09.702Z,12.43
2019-02-15T17:51:39.369Z,28.50
2019-02-15T17:54:08.984Z,13.70
2019-02-15T17:56:38.650Z,13.97
2019-02-15T17:59:08.273Z,18.97
2019-02-15T18:01:37.951Z,15.20
2019-02-15T18:04:07.571Z,16.07
2019-02-15T18:06:37.306Z,15.57
2019-02-15T18:09:07.033Z,14.97
2019-02-15T18:11:36.680Z,14.80
2019-02-15T18:14:06.917Z,15.40
2019-02-15T18:16:39.030Z,16.77
2019-02-15T18:19:10.263Z,16.97
2019-02-15T18:21:38.246Z,17.43
2019-02-15T18:24:07.909Z,16.67
2019-02-15T18:26:37.546Z,17.73
2019-02-15T18:29:07.244Z,16.13
2019-02-15T18:31:36.857Z,16.83
2019-02-15T18:34:08.897Z,17.40
2019-02-15T18:36:38.509Z,15.10
2019-02-15T18:39:08.131Z,17.13
2019-02-15T18:41:37.794Z,16.50
2019-02-15T18:44:07.459Z,17.20
2019-02-15T18:46:37.130Z,16.67
2019-02-15T18:49:06.737Z,16.60
2019-02-15T18:51:37.681Z,17.10
2019-02-15T18:54:07.361Z,16.17
2019-02-15T18:56:37.025Z,16.20
2019-02-15T18:59:06.730Z,15.47
2019-02-15T19:01:36.732Z,15.43
2019-02-15T19:04:06.353Z,15.03
2019-02-15T19:06:36.797Z,14.80
2019-02-15T19:09:06.769Z,15.30
2019-02-15T19:11:36.441Z,15.57
2019-02-15T19:14:06.395Z,15.30
2019-02-15T19:16:36.059Z,15.20
2019-02-15T19:19:05.677Z,14.50
2019-02-15T19:21:35.282Z,15.07
2019-02-15T19:24:04.905Z,14.70
2019-02-15T19:26:34.557Z,12.70
2019-02-15T19:29:04.197Z,13.77
2019-02-15T19:31:35.015Z,12.40
2019-02-15T19:34:04.856Z,13.17
2019-02-15T19:36:35.093Z,13.57
2019-02-15T19:39:05.837Z,11.30
2019-02-15T19:41:35.465Z,12.87
2019-02-15T19:44:05.095Z,11.80
2019-02-15T19:46:34.780Z,12.43
2019-02-15T19:49:04.443Z,12.33
2019-02-15T19:51:35.857Z,11.07
2019-02-15T19:54:03.765Z,11.20
2019-02-15T19:56:33.786Z,10.83
2019-02-15T19:59:04.614Z,11.10
2019-02-15T20:01:34.488Z,10.40
2019-02-15T20:04:04.182Z,10.03
2019-02-15T20:06:33.865Z,10.77
2019-02-15T20:09:03.733Z,10.33
2019-02-15T20:11:34.500Z,10.17
2019-02-15T20:14:04.164Z,10.23
2019-02-15T20:16:33.834Z,11.20
2019-02-15T20:19:03.512Z,10.17
2019-02-15T20:21:33.169Z,10.13
2019-02-15T20:24:03.821Z,10.30
2019-02-15T20:26:33.577Z,10.50
2019-02-15T20:29:03.268Z,11.10
2019-02-15T20:31:33.244Z,11.87
2019-02-15T20:34:02.882Z,9.90
2019-02-15T20:36:32.529Z,10.77
2019-02-15T20:39:03.445Z,10.47
2019-02-15T20:41:33.102Z,10.67
2019-02-15T20:44:02.750Z,10.67
2019-02-15T20:46:33.035Z,11.07
2019-02-15T20:49:04.901Z,11.03
2019-02-15T20:51:32.578Z,10.77
2019-02-15T20:54:03.528Z,11.70
2019-02-15T20:56:33.194Z,11.77
2019-02-15T20:59:03.357Z,11.10
2019-02-15T21:01:33.013Z,11.47
2019-02-15T21:04:02.660Z,11.77
2019-02-15T21:06:32.729Z,11.73
2019-02-15T21:09:02.357Z,11.83
2019-02-15T21:11:32.153Z,11.60
2019-02-15T21:14:01.907Z,11.67
2019-02-15T21:16:31.545Z,11.57
2019-02-15T21:19:01.408Z,10.73
2019-02-15T21:21:31.031Z,11.23
2019-02-15T21:24:00.677Z,11.83
2019-02-15T21:29:05.613Z,11.90
2019-02-15T21:31:36.547Z,14.07
2019-02-15T21:34:06.189Z,14.27
2019-02-15T21:36:36.209Z,17.83
2019-02-15T21:39:06.949Z,14.80
2019-02-15T21:41:36.684Z,12.97
2019-02-15T21:44:07.272Z,14.77
2019-02-15T21:46:37.501Z,14.10
2019-02-15T21:49:10.136Z,14.53
2019-02-15T21:51:40.152Z,13.97
2019-02-15T21:54:11.095Z,14.70
2019-02-15T21:56:40.721Z,15.27
2019-02-15T21:59:10.362Z,14.97
2019-02-15T22:01:39.982Z,15.00
2019-02-15T22:04:09.605Z,14.53
2019-02-15T22:06:40.586Z,13.33
2019-02-15T22:09:11.570Z,15.17
2019-02-15T22:11:41.194Z,14.03
2019-02-15T22:14:13.389Z,15.83
2019-02-15T22:16:43.044Z,13.73
2019-02-15T22:19:12.678Z,14.83
2019-02-15T22:21:43.438Z,14.87
2019-02-15T22:24:13.320Z,15.70
2019-02-15T22:26:42.945Z,16.73
2019-02-15T22:29:12.561Z,16.23
2019-02-15T22:31:42.235Z,16.10
2019-02-15T22:34:11.908Z,16.73
2019-02-15T22:36:41.537Z,17.87
2019-02-15T22:39:12.578Z,15.30
2019-02-15T22:41:42.280Z,16.20
2019-02-15T22:44:11.964Z,15.80
2019-02-15T22:46:41.666Z,16.03
2019-02-15T22:49:11.262Z,15.37
2019-02-15T22:51:42.089Z,16.63
2019-02-15T22:54:14.197Z,15.63
2019-02-15T22:56:44.604Z,16.27
2019-02-15T22:59:14.213Z,15.23
2019-02-15T23:01:43.847Z,15.47
2019-02-15T23:05:42.983Z,14.00
2019-02-15T23:08:12.592Z,14.63
2019-02-15T23:10:42.211Z,14.00
2019-02-15T23:13:13.173Z,15.07
2019-02-15T23:15:42.781Z,14.83
2019-02-15T23:18:12.385Z,14.27
2019-02-15T23:20:45.512Z,13.80
2019-02-15T23:23:14.165Z,13.60
2019-02-15T23:25:43.798Z,14.27
2019-02-15T23:28:13.461Z,14.27
2019-02-15T23:30:43.061Z,15.13
2019-02-15T23:33:12.664Z,14.33
2019-02-15T23:35:42.304Z,15.40
2019-02-15T23:38:11.900Z,14.97
2019-02-15T23:40:42.725Z,12.90
2019-02-15T23:43:12.359Z,14.20
2019-02-15T23:45:41.948Z,13.83
2019-02-15T23:48:12.891Z,13.10
2019-02-15T23:50:42.509Z,13.70
2019-02-15T23:53:12.129Z,17.45
2019-02-15T23:55:45.300Z,15.20
2019-02-15T23:58:14.932Z,13.57
